createdAt,value
2022-11-29T00:03:53.656Z,99365.84
2022-11-29T00:08:58.966Z,99368.94
2022-11-29T00:14:02.420Z,99365.03
2022-11-29T00:19:07.365Z,99369.25
2022-11-29T00:24:10.785Z,99358.81
2022-11-29T00:29:14.578Z,99345.09
2022-11-29T00:34:19.422Z,99339.06
2022-11-29T00:39:22.737Z,99340.03
2022-11-29T00:44:26.148Z,99334.59
2022-11-29T00:49:30.989Z,99333.78
2022-11-29T00:54:34.510Z,99336.09
2022-11-29T00:59:37.906Z,99317.00
2022-11-29T01:04:43.006Z,99313.88
2022-11-29T01:09:46.594Z,99314.88
2022-11-29T01:14:49.914Z,99319.34
2022-11-29T01:19:54.856Z,99334.16
2022-11-29T01:24:58.260Z,99327.13
2022-11-29T01:30:01.809Z,99323.72
2022-11-29T01:35:09.618Z,99325.69
2022-11-29T01:40:14.123Z,99322.09
2022-11-29T01:45:23.498Z,99313.28
2022-11-29T01:50:28.336Z,99314.06
2022-11-29T01:55:32.342Z,99311.34
2022-11-29T02:00:36.744Z,99304.56
2022-11-29T02:05:44.715Z,99303.41
2022-11-29T02:11:18.522Z,99312.84
2022-11-29T02:16:26.352Z,99314.63
2022-11-29T02:21:41.462Z,99316.22
2022-11-29T02:27:08.230Z,99309.59
2022-11-29T02:32:49.499Z,99300.84
2022-11-29T02:38:07.886Z,99300.03
2022-11-29T02:43:40.625Z,99292.22
2022-11-29T02:49:05.841Z,99289.00
2022-11-29T02:54:17.912Z,99294.06
2022-11-29T02:59:42.789Z,99292.31
2022-11-29T03:04:51.973Z,99291.63
2022-11-29T03:10:01.961Z,99300.34
2022-11-29T03:15:19.856Z,99301.25
2022-11-29T03:20:36.556Z,99296.91
2022-11-29T03:25:43.299Z,99298.34
2022-11-29T03:30:51.968Z,99312.31
2022-11-29T03:36:05.802Z,99303.53
2022-11-29T03:41:19.997Z,99304.09
2022-11-29T03:46:30.577Z,99311.84
2022-11-29T03:51:59.869Z,99315.28
2022-11-29T03:57:03.770Z,99319.00
2022-11-29T04:02:44.930Z,99313.13
2022-11-29T04:08:07.702Z,99315.41
2022-11-29T04:13:37.111Z,99307.91
2022-11-29T04:19:26.107Z,99332.75
2022-11-29T04:25:03.707Z,99323.47
2022-11-29T04:30:15.401Z,99328.09
2022-11-29T04:35:35.175Z,99327.94
2022-11-29T04:40:57.280Z,99332.50
2022-11-29T04:46:28.389Z,99333.31
2022-11-29T04:51:47.368Z,99324.88
2022-11-29T04:56:55.821Z,99323.47
2022-11-29T05:02:08.702Z,99331.00
2022-11-29T05:07:23.804Z,99336.31
2022-11-29T05:12:37.194Z,99340.78
2022-11-29T05:17:51.777Z,99338.00
2022-11-29T05:23:20.191Z,99345.63
2022-11-29T05:28:34.505Z,99355.75
2022-11-29T05:34:16.119Z,99357.44
2022-11-29T05:39:42.977Z,99350.53
2022-11-29T05:44:52.246Z,99354.72
2022-11-29T05:50:04.586Z,99361.72
2022-11-29T05:55:30.962Z,99371.28
2022-11-29T06:00:45.822Z,99375.53
2022-11-29T06:05:53.101Z,99364.69
2022-11-29T06:11:02.529Z,99369.31
2022-11-29T06:16:36.492Z,99370.25
2022-11-29T06:21:47.561Z,99375.88
2022-11-29T06:27:14.247Z,99373.81
2022-11-29T06:32:26.791Z,99380.06
2022-11-29T06:37:37.337Z,99385.78
2022-11-29T06:42:40.685Z,99387.41
2022-11-29T06:47:47.931Z,99387.59
2022-11-29T06:52:58.519Z,99393.69
2022-11-29T06:58:11.040Z,99387.41
2022-11-29T07:03:34.222Z,99382.72
2022-11-29T07:08:38.185Z,99383.91
2022-11-29T07:13:42.167Z,99396.50
2022-11-29T07:18:58.441Z,99389.63
2022-11-29T07:24:09.818Z,99398.38
2022-11-29T07:29:25.008Z,99389.22
2022-11-29T07:34:41.590Z,99387.44
2022-11-29T07:39:59.235Z,99376.63
2022-11-29T07:45:14.046Z,99392.47
2022-11-29T07:50:19.050Z,99380.97
2022-11-29T07:55:23.893Z,99384.03
2022-11-29T08:00:27.646Z,99385.88
2022-11-29T08:05:32.510Z,99395.75
2022-11-29T08:10:36.034Z,99392.69
2022-11-29T08:15:46.060Z,99387.44
2022-11-29T08:20:50.878Z,99379.78
2022-11-29T08:26:00.975Z,99380.66
2022-11-29T08:31:05.482Z,99377.38
2022-11-29T08:36:13.189Z,99379.56
2022-11-29T08:41:18.517Z,99378.88
2022-11-29T08:46:22.222Z,99373.63
2022-11-29T08:51:26.982Z,99376.63
2022-11-29T08:57:16.412Z,99367.53
2022-11-29T09:01:53.808Z,99361.13
2022-11-29T09:06:58.715Z,99363.25
2022-11-29T09:12:02.084Z,99360.72
2022-11-29T09:17:05.510Z,99367.66
2022-11-29T09:22:10.310Z,99358.31
2022-11-29T09:27:13.717Z,99355.88
2022-11-29T09:32:17.084Z,99355.13
2022-11-29T09:37:21.918Z,99336.38
2022-11-29T09:42:47.653Z,99328.78
2022-11-29T09:48:10.417Z,99319.75
2022-11-29T09:53:34.885Z,99322.38
2022-11-29T09:58:44.068Z,99327.88
2022-11-29T10:03:53.068Z,99315.19
2022-11-29T10:09:03.322Z,99317.31
2022-11-29T10:14:14.504Z,99315.81
2022-11-29T10:19:23.722Z,99304.81
2022-11-29T10:24:30.754Z,99299.06
2022-11-29T10:29:34.455Z,99297.81
2022-11-29T10:34:38.025Z,99295.31
2022-11-29T10:39:46.464Z,99294.41
2022-11-29T10:44:49.853Z,99296.34
2022-11-29T10:49:53.397Z,99294.34
2022-11-29T10:55:01.264Z,99298.88
2022-11-29T11:00:09.188Z,99301.34
2022-11-29T11:05:19.026Z,99294.41
2022-11-29T11:10:28.325Z,99296.53
2022-11-29T11:15:33.063Z,99295.75
2022-11-29T11:20:39.099Z,99306.09
2022-11-29T11:25:44.060Z,99303.59
2022-11-29T11:30:52.879Z,99303.75
2022-11-29T11:36:05.090Z,99300.41
2022-11-29T11:41:45.047Z,99287.53
2022-11-29T11:46:51.473Z,99294.53
2022-11-29T11:51:54.985Z,99291.25
2022-11-29T11:57:00.900Z,99295.53
2022-11-29T12:02:04.380Z,99292.13
2022-11-29T12:07:17.349Z,99290.56
2022-11-29T12:12:26.600Z,99291.53
2022-11-29T12:17:36.389Z,99294.19
2022-11-29T12:22:48.585Z,99281.25
2022-11-29T12:27:53.857Z,99290.94
2022-11-29T12:33:19.600Z,99292.88
2022-11-29T12:38:32.555Z,99295.56
2022-11-29T12:44:00.381Z,99288.06
2022-11-29T12:49:15.238Z,99303.81
2022-11-29T12:54:35.129Z,99297.19
2022-11-29T13:00:02.741Z,99288.81
2022-11-29T13:05:19.056Z,99294.13
2022-11-29T13:10:34.228Z,99292.59
2022-11-29T13:15:46.016Z,99302.50
2022-11-29T13:20:54.457Z,99306.91
2022-11-29T13:26:05.393Z,99306.19
2022-11-29T13:31:15.235Z,99308.91
2022-11-29T13:36:26.261Z,99309.88
2022-11-29T13:41:33.541Z,99309.00
2022-11-29T13:46:48.380Z,99325.50
2022-11-29T13:52:05.865Z,99333.31
2022-11-29T13:57:11.114Z,99337.56
2022-11-29T14:02:29.914Z,99341.91
2022-11-29T14:07:35.135Z,99343.66
2022-11-29T14:12:42.924Z,99349.63
2022-11-29T14:17:57.079Z,99346.97
2022-11-29T14:23:18.231Z,99334.00
2022-11-29T14:28:32.109Z,99340.16
2022-11-29T14:34:01.638Z,99337.47
2022-11-29T14:39:20.051Z,99338.34
2022-11-29T14:44:26.338Z,99336.44
2022-11-29T14:49:33.233Z,99336.50
2022-11-29T14:54:38.023Z,99339.16
2022-11-29T14:59:51.841Z,99336.63
2022-11-29T15:04:58.192Z,99328.72
2022-11-29T15:10:05.454Z,99332.94
2022-11-29T15:15:23.191Z,99333.81
2022-11-29T15:20:49.242Z,99333.72
2022-11-29T15:25:54.893Z,99343.19
2022-11-29T15:31:04.921Z,99347.38
2022-11-29T15:36:16.004Z,99356.03
2022-11-29T15:41:21.109Z,99350.84
2022-11-29T15:46:27.333Z,99355.06
2022-11-29T15:51:34.862Z,99358.44
2022-11-29T15:56:43.773Z,99368.78
2022-11-29T16:01:49.227Z,99370.44
2022-11-29T16:06:56.493Z,99372.88
2022-11-29T16:12:01.519Z,99387.59
2022-11-29T16:17:05.448Z,99392.72
2022-11-29T16:22:22.703Z,99400.44
2022-11-29T16:27:26.243Z,99407.22
2022-11-29T16:32:31.705Z,99409.78
2022-11-29T16:37:41.345Z,99417.41
2022-11-29T16:42:50.078Z,99417.50
2022-11-29T16:48:01.165Z,99420.69
2022-11-29T16:53:35.280Z,99425.72
2022-11-29T16:59:25.277Z,99423.09
2022-11-29T17:04:02.849Z,99420.47
2022-11-29T17:09:07.849Z,99403.91
2022-11-29T17:14:11.250Z,99417.81
2022-11-29T17:19:14.673Z,99431.47
2022-11-29T17:24:22.211Z,99442.41
2022-11-29T17:29:25.772Z,99437.31
2022-11-29T17:34:29.183Z,99451.00
2022-11-29T17:39:34.038Z,99449.97
2022-11-29T17:44:37.455Z,99455.06
2022-11-29T17:49:40.964Z,99451.47
2022-11-29T17:54:45.740Z,99459.44
2022-11-29T17:59:49.167Z,99460.00
2022-11-29T18:04:52.597Z,99467.78
2022-11-29T18:09:57.394Z,99468.63
2022-11-29T18:15:00.738Z,99470.00
2022-11-29T18:20:04.208Z,99482.16
2022-11-29T18:25:36.813Z,99482.88
2022-11-29T18:30:33.146Z,99481.00
2022-11-29T18:35:36.659Z,99487.06
2022-11-29T18:40:41.693Z,99500.56
2022-11-29T18:45:45.224Z,99497.19
2022-11-29T18:50:49.057Z,99490.03
2022-11-29T18:56:02.794Z,99486.47
2022-11-29T19:01:08.146Z,99488.28
2022-11-29T19:06:13.547Z,99478.63
2022-11-29T19:11:20.268Z,99477.69
2022-11-29T19:16:24.501Z,99481.81
2022-11-29T19:21:30.068Z,99485.22
2022-11-29T19:26:36.138Z,99484.19
2022-11-29T19:31:40.073Z,99492.88
2022-11-29T19:36:45.052Z,99497.78
2022-11-29T19:41:50.461Z,99492.88
2022-11-29T19:46:55.040Z,99498.09
2022-11-29T19:51:58.920Z,99504.59
2022-11-29T19:57:03.674Z,99502.66
2022-11-29T20:02:07.068Z,99507.09
2022-11-29T20:07:10.551Z,99507.75
2022-11-29T20:12:15.402Z,99508.78
2022-11-29T20:17:18.974Z,99494.00
2022-11-29T20:22:22.449Z,99501.06
2022-11-29T20:27:27.209Z,99505.09
2022-11-29T20:32:31.266Z,99509.50
2022-11-29T20:38:01.536Z,99506.88
2022-11-29T20:43:14.960Z,99520.44
2022-11-29T20:48:20.812Z,99511.09
2022-11-29T20:53:41.329Z,99520.31
2022-11-29T20:58:46.169Z,99528.88
2022-11-29T21:03:49.605Z,99531.41
2022-11-29T21:08:53.008Z,99524.44
2022-11-29T21:13:58.372Z,99524.44
2022-11-29T21:19:03.762Z,99511.28
2022-11-29T21:24:16.868Z,99521.03
2022-11-29T21:29:23.498Z,99532.97
2022-11-29T21:34:26.941Z,99530.25
2022-11-29T21:39:33.991Z,99525.06
2022-11-29T21:44:38.794Z,99528.44
2022-11-29T21:49:42.330Z,99525.03
2022-11-29T21:54:46.597Z,99538.00
2022-11-29T21:59:51.657Z,99550.16
2022-11-29T22:04:55.065Z,99539.47
2022-11-29T22:09:58.414Z,99543.06
2022-11-29T22:15:03.226Z,99543.94
2022-11-29T22:20:08.296Z,99548.81
2022-11-29T22:25:11.661Z,99553.78
2022-11-29T22:30:18.037Z,99552.25
2022-11-29T22:35:21.446Z,99537.47
2022-11-29T22:40:24.801Z,99528.06
2022-11-29T22:45:29.578Z,99524.44
2022-11-29T22:50:32.972Z,99521.91
2022-11-29T22:55:36.412Z,99515.56
2022-11-29T23:00:44.149Z,99503.41
2022-11-29T23:05:47.603Z,99485.47
2022-11-29T23:10:56.427Z,99485.59
2022-11-29T23:16:01.431Z,99478.72
2022-11-29T23:21:07.039Z,99474.38
2022-11-29T23:26:17.809Z,99476.78
2022-11-29T23:31:24.423Z,99472.53
2022-11-29T23:36:27.858Z,99476.84
2022-11-29T23:41:31.360Z,99487.09
2022-11-29T23:46:36.435Z,99486.41
2022-11-29T23:51:39.785Z,99485.34
2022-11-29T23:56:43.165Z,99489.00
